Time;durP1;ratioP1;P1;durP2;ratioP2;P2;SDS_P1;SDS_P2;PMS_P1;PMS_P2;Temp;Humidity;BMP_temperature;BMP_pressure;BME280_temperature;BME280_humidity;BME280_pressure;Samples;Min_cycle;Max_cycle;Signal;HPM_P1;HPM_P2
2021/09/25 00:01:10;;;;;;;11.13;3.70;;;;;;;14.29;65.29;95134.38;5112878;28;20457;-78
2021/09/25 00:03:37;;;;;;;4.77;4.17;;;;;;;14.29;65.53;95138.81;5113157;28;20440;-78
2021/09/25 00:06:04;;;;;;;4.17;3.50;;;;;;;14.30;65.36;95137.84;5112990;28;20444;-78
2021/09/25 00:08:31;;;;;;;5.47;4.53;;;;;;;14.27;65.21;95139.81;5112898;28;20461;-78
2021/09/25 00:10:58;;;;;;;5.03;3.37;;;;;;;14.22;65.09;95128.88;5113013;28;20930;-78
2021/09/25 00:13:25;;;;;;;5.50;4.30;;;;;;;14.21;64.98;95136.94;5113127;28;20818;-78
2021/09/25 00:15:52;;;;;;;3.67;3.37;;;;;;;14.15;64.60;95145.41;5113094;28;20443;-78
2021/09/25 00:18:21;;;;;;;10.80;4.90;;;;;;;14.09;64.66;95138.06;5112848;28;20448;-78
2021/09/25 00:20:48;;;;;;;5.20;3.93;;;;;;;14.08;64.99;95139.88;5112711;28;20452;-78
2021/09/25 00:23:14;;;;;;;6.67;4.40;;;;;;;14.04;64.78;95141.16;5112610;28;21019;-78
2021/09/25 00:25:41;;;;;;;7.07;5.20;;;;;;;14.00;64.89;95150.34;5112834;28;20450;-78
2021/09/25 00:28:08;;;;;;;4.63;4.20;;;;;;;14.03;65.14;95142.13;5112876;28;20448;-78
2021/09/25 00:30:35;;;;;;;4.60;4.00;;;;;;;14.02;65.09;95137.81;5113070;28;20445;-78
2021/09/25 00:33:03;;;;;;;6.20;4.07;;;;;;;14.04;64.89;95137.69;5112805;28;20436;-78
2021/09/25 00:35:32;;;;;;;7.33;3.53;;;;;;;14.00;65.02;95134.50;5112871;28;20469;-78
2021/09/25 00:37:58;;;;;;;4.20;3.80;;;;;;;13.99;65.11;95130.22;5112846;28;20452;-78
2021/09/25 00:40:25;;;;;;;5.03;3.80;;;;;;;13.97;65.29;95140.06;5113535;28;20442;-78
2021/09/25 00:42:52;;;;;;;4.97;4.30;;;;;;;13.93;65.85;95142.19;5117121;28;20490;-78
2021/09/25 00:45:19;;;;;;;6.67;4.50;;;;;;;13.94;66.11;95135.91;5116562;28;20470;-78
2021/09/25 00:47:46;;;;;;;8.13;4.50;;;;;;;13.93;66.29;95136.06;5116921;28;20442;-78
2021/09/25 00:50:13;;;;;;;4.53;3.97;;;;;;;13.95;66.67;95145.50;5080852;28;20450;-78
2021/09/25 00:52:42;;;;;;;4.97;4.10;;;;;;;13.93;66.03;95141.34;5097607;28;20454;-78
2021/09/25 00:55:10;;;;;;;6.10;4.23;;;;;;;13.95;66.43;95142.84;5116667;28;20447;-78
2021/09/25 00:57:37;;;;;;;4.03;3.63;;;;;;;13.99;66.67;95146.03;5116839;28;20992;-78
2021/09/25 01:00:07;;;;;;;4.70;4.20;;;;;;;13.98;66.58;95146.19;5116442;28;20536;-78
2021/09/25 01:02:36;;;;;;;4.80;3.70;;;;;;;13.93;66.74;95147.44;5097408;28;20488;-78
2021/09/25 01:05:04;;;;;;;7.00;3.80;;;;;;;13.96;66.95;95151.59;5116395;28;20461;-78
2021/09/25 01:07:31;;;;;;;4.47;3.80;;;;;;;13.90;67.42;95150.38;5116365;28;20457;-78
2021/09/25 01:09:59;;;;;;;4.67;3.93;;;;;;;13.86;67.30;95150.78;5116378;28;20442;-78
2021/09/25 01:12:26;;;;;;;5.23;4.40;;;;;;;13.82;67.98;95146.78;5080625;28;20796;-78
2021/09/25 01:14:53;;;;;;;4.10;3.70;;;;;;;13.80;67.85;95152.19;5116358;28;20447;-78
2021/09/25 01:17:21;;;;;;;3.83;3.53;;;;;;;13.77;68.38;95146.38;5116165;28;20435;-78
2021/09/25 01:19:48;;;;;;;6.70;4.10;;;;;;;13.76;68.20;95144.72;5116277;28;20446;-78
2021/09/25 01:22:16;;;;;;;8.03;4.37;;;;;;;13.73;68.10;95145.00;5097129;28;20481;-78
2021/09/25 01:24:43;;;;;;;5.77;4.23;;;;;;;13.75;68.12;95148.34;5115856;28;20449;-78
2021/09/25 01:27:11;;;;;;;5.33;4.77;;;;;;;13.75;68.29;95148.34;5116085;28;20881;-78
2021/09/25 01:29:38;;;;;;;6.40;4.40;;;;;;;13.72;68.31;95144.19;5116060;28;20443;-78
2021/09/25 01:32:06;;;;;;;5.30;4.23;;;;;;;13.72;68.18;95153.91;5115985;28;20445;-78
2021/09/25 01:34:34;;;;;;;4.30;3.57;;;;;;;13.70;67.37;95147.94;5080219;28;20446;-78
2021/09/25 01:37:01;;;;;;;5.00;4.10;;;;;;;13.68;67.41;95152.53;5115776;28;20804;-78
2021/09/25 01:39:32;;;;;;;4.87;4.40;;;;;;;13.69;67.54;95156.81;5115875;28;20529;-78
2021/09/25 01:41:59;;;;;;;4.23;3.80;;;;;;;13.62;67.48;95154.75;5115615;28;20565;-78
2021/09/25 01:44:27;;;;;;;4.33;3.90;;;;;;;13.61;67.25;95163.66;5096602;28;20437;-77
2021/09/25 01:46:54;;;;;;;5.57;4.10;;;;;;;13.57;67.62;95156.97;5115249;28;20478;-78
2021/09/25 01:49:21;;;;;;;9.30;3.90;;;;;;;13.56;67.61;95160.56;5115325;28;20930;-77
2021/09/25 01:51:49;;;;;;;5.37;4.13;;;;;;;13.53;68.03;95167.94;5115353;28;20798;-77
2021/09/25 01:54:17;;;;;;;6.53;4.20;;;;;;;13.51;68.13;95168.06;5115368;28;20799;-77
2021/09/25 01:56:46;;;;;;;6.90;3.93;;;;;;;13.50;68.01;95166.41;5115400;28;20456;-77
2021/09/25 01:59:13;;;;;;;7.50;4.67;;;;;;;13.46;68.92;95170.31;5115436;28;20506;-77
2021/09/25 02:01:40;;;;;;;5.13;3.77;;;;;;;13.46;68.69;95165.03;5115102;28;20444;-77
2021/09/25 02:04:07;;;;;;;11.23;4.80;;;;;;;13.43;69.15;95164.50;5115406;28;20445;-77
2021/09/25 02:06:34;;;;;;;4.50;3.90;;;;;;;13.46;68.18;95164.22;5115152;28;20450;-77
2021/09/25 02:09:01;;;;;;;6.73;4.60;;;;;;;13.50;68.53;95176.13;5114897;28;20439;-77
2021/09/25 02:11:28;;;;;;;3.87;3.57;;;;;;;13.47;68.33;95176.41;5115085;28;20450;-77
2021/09/25 02:13:56;;;;;;;4.53;3.93;;;;;;;13.43;68.37;95177.69;5096129;28;20800;-77
2021/09/25 02:16:23;;;;;;;4.03;3.63;;;;;;;13.46;68.26;95175.59;5079088;28;20447;-77
2021/09/25 02:18:51;;;;;;;5.70;4.40;;;;;;;13.47;68.56;95182.53;5115181;28;20442;-77
2021/09/25 02:21:18;;;;;;;4.40;3.77;;;;;;;13.42;68.54;95176.84;5115158;28;20439;-78
2021/09/25 02:23:45;;;;;;;6.27;3.90;;;;;;;13.43;68.84;95186.41;5114993;28;20843;-77
2021/09/25 02:26:12;;;;;;;4.17;3.73;;;;;;;13.38;68.62;95182.53;5114662;28;20443;-77
2021/09/25 02:28:39;;;;;;;6.77;3.83;;;;;;;13.36;69.08;95184.47;5114554;28;20467;-77
2021/09/25 02:31:08;;;;;;;6.10;4.10;;;;;;;13.35;68.72;95188.09;5114739;28;20446;-77
2021/09/25 02:33:34;;;;;;;3.97;3.67;;;;;;;13.31;68.62;95190.19;5114738;28;20817;-77
2021/09/25 02:36:01;;;;;;;4.67;3.90;;;;;;;13.31;69.43;95187.53;5078923;28;20450;-77
2021/09/25 02:38:28;;;;;;;4.03;3.63;;;;;;;13.24;69.05;95192.50;5114600;28;20866;-77
2021/09/25 02:40:56;;;;;;;5.60;4.03;;;;;;;13.23;70.09;95192.66;5114521;28;20816;-77
2021/09/25 02:43:23;;;;;;;3.67;3.37;;;;;;;13.20;69.62;95192.94;5114458;28;20989;-77
2021/09/25 02:45:50;;;;;;;5.60;4.63;;;;;;;13.20;69.74;95195.56;5095206;28;20490;-77
2021/09/25 02:48:18;;;;;;;9.10;4.20;;;;;;;13.20;70.53;95206.09;5114507;28;20439;-77
2021/09/25 02:50:45;;;;;;;5.03;4.00;;;;;;;13.18;70.04;95198.34;5114783;28;20445;-77
2021/09/25 02:53:12;;;;;;;4.57;4.10;;;;;;;13.19;70.31;95209.72;5114712;28;20542;-77
2021/09/25 02:55:40;;;;;;;6.20;4.30;;;;;;;13.18;70.30;95205.41;5114508;28;20450;-77
2021/09/25 02:58:06;;;;;;;3.93;3.40;;;;;;;13.17;70.46;95219.53;5078589;28;20542;-77
2021/09/25 03:00:33;;;;;;;4.33;3.80;;;;;;;13.17;70.30;95211.63;5114041;28;20453;-77
2021/09/25 03:03:01;;;;;;;5.23;4.07;;;;;;;13.11;70.32;95222.72;5113091;28;20478;-77
2021/09/25 03:05:29;;;;;;;4.40;3.90;;;;;;;13.08;71.13;95218.56;5113894;28;20443;-77
2021/09/25 03:07:56;;;;;;;7.17;5.30;;;;;;;13.08;70.66;95225.63;5114345;28;20456;-76
2021/09/25 03:10:23;;;;;;;4.70;3.90;;;;;;;13.11;71.37;95220.91;5114208;28;20459;-77
2021/09/25 03:12:50;;;;;;;4.50;3.97;;;;;;;13.15;70.96;95232.84;5114261;28;20444;-78
2021/09/25 03:15:17;;;;;;;13.30;6.33;;;;;;;13.19;70.96;95239.53;5114178;28;20442;-78
2021/09/25 03:17:44;;;;;;;10.23;4.30;;;;;;;13.39;85.27;95227.22;5114230;28;20441;-78
2021/09/25 03:20:12;;;;;;;5.87;3.57;;;;;;;13.53;72.97;95244.41;5113860;28;20520;-77
2021/09/25 03:22:41;;;;;;;4.73;4.20;;;;;;;13.54;70.79;95246.06;5113592;28;20489;-77
2021/09/25 03:25:09;;;;;;;6.27;4.80;;;;;;;13.50;70.73;95248.16;5114007;28;20460;-78
2021/09/25 03:27:37;;;;;;;4.13;3.70;;;;;;;13.46;70.45;95244.13;5078567;28;20435;-77
2021/09/25 03:30:06;;;;;;;9.10;4.70;;;;;;;13.41;69.99;95251.63;5077751;28;20931;-77
2021/09/25 04:33:46;;;;;;;6.87;5.03;;;;;;;14.98;75.11;95339.13;5151787;27;20866;-76
2021/09/25 04:36:13;;;;;;;6.17;5.57;;;;;;;14.80;72.28;95337.25;5152034;27;20441;-76
2021/09/25 04:38:40;;;;;;;7.20;5.93;;;;;;;14.57;71.70;95342.06;5152023;27;20447;-76
2021/09/25 04:41:07;;;;;;;7.23;5.30;;;;;;;14.43;71.42;95350.41;5151726;27;20456;-76
2021/09/25 04:43:34;;;;;;;10.03;6.57;;;;;;;14.26;71.87;95353.75;5151516;27;20445;-77
2021/09/25 04:46:01;;;;;;;6.03;5.43;;;;;;;14.17;72.39;95350.19;5149590;27;20431;-76
2021/09/25 04:48:28;;;;;;;10.50;6.50;;;;;;;14.02;72.81;95351.56;5151731;27;20523;-79
2021/09/25 04:50:56;;;;;;;15.00;7.33;;;;;;;14.00;74.50;95348.22;5153298;27;20433;-78
2021/09/25 04:53:23;;;;;;;10.87;6.87;;;;;;;13.97;74.55;95345.88;5152691;27;21015;-78
2021/09/25 04:55:50;;;;;;;10.50;6.17;;;;;;;13.93;74.81;95362.97;5151482;27;20441;-79
2021/09/25 04:58:17;;;;;;;11.53;6.37;;;;;;;13.88;74.25;95359.91;5151467;27;20906;-78
2021/09/25 05:00:44;;;;;;;9.00;5.80;;;;;;;13.79;74.22;95355.44;5132046;27;20439;-79
2021/09/25 05:03:11;;;;;;;9.03;5.53;;;;;;;13.64;75.63;95365.56;5151382;27;20447;-78
2021/09/25 05:05:38;;;;;;;5.70;5.10;;;;;;;13.74;76.82;95360.31;5151267;27;20450;-78
2021/09/25 05:08:06;;;;;;;12.40;7.47;;;;;;;13.83;78.12;95359.47;5151470;27;20802;-78
2021/09/25 05:10:33;;;;;;;8.20;6.13;;;;;;;13.86;75.77;95359.19;5151125;27;20544;-79
2021/09/25 05:13:00;;;;;;;7.17;6.33;;;;;;;14.12;75.11;95368.22;5151038;27;20483;-78
2021/09/25 05:15:27;;;;;;;6.80;5.30;;;;;;;14.64;74.21;95363.44;5114679;27;20433;-78
2021/09/25 05:17:54;;;;;;;10.93;5.30;;;;;;;15.34;70.19;95364.72;5151330;27;20932;-78
2021/09/25 05:20:21;;;;;;;6.90;4.80;;;;;;;16.09;67.06;95374.09;5151366;27;20450;-78
2021/09/25 05:22:48;;;;;;;12.63;6.57;;;;;;;16.79;64.55;95387.44;5151206;27;20485;-79
2021/09/25 05:25:16;;;;;;;8.60;5.00;;;;;;;17.64;61.41;95385.69;5151180;27;20436;-79
2021/09/25 05:27:43;;;;;;;6.93;4.83;;;;;;;18.19;59.30;95387.81;5150917;27;20440;-78
2021/09/25 05:30:12;;;;;;;6.93;5.00;;;;;;;18.68;57.68;95379.88;5114960;27;20934;-83
2021/09/25 05:32:39;;;;;;;7.97;5.07;;;;;;;19.42;57.15;95384.06;5131719;27;20492;-79
2021/09/25 05:35:07;;;;;;;4.97;4.47;;;;;;;19.80;54.29;95380.56;5151030;27;20963;-78
2021/09/25 05:37:34;;;;;;;7.40;5.50;;;;;;;20.20;53.35;95378.66;5150843;27;20451;-79
2021/09/25 05:40:02;;;;;;;5.80;5.07;;;;;;;20.55;52.60;95381.78;5151295;27;20443;-79
2021/09/25 05:42:30;;;;;;;4.97;4.27;;;;;;;20.89;52.85;95371.47;5150618;27;20524;-78
2021/09/25 05:44:57;;;;;;;6.93;5.87;;;;;;;21.18;49.45;95389.34;5118565;27;20779;-79
2021/09/25 05:47:26;;;;;;;6.27;5.53;;;;;;;21.46;49.00;95384.25;5137073;27;20442;-80
2021/09/25 05:49:53;;;;;;;9.00;6.00;;;;;;;21.68;49.48;95387.78;5136999;27;20768;-80
2021/09/25 05:52:20;;;;;;;8.33;5.17;;;;;;;21.93;50.85;95393.66;5136654;27;20818;-79
2021/09/25 05:54:47;;;;;;;5.83;4.50;;;;;;;22.17;50.16;95392.50;5136748;27;20807;-78
2021/09/25 05:57:14;;;;;;;19.93;5.27;;;;;;;22.44;56.11;95399.78;5137152;27;20446;-77
2021/09/25 05:59:43;;;;;;;5.53;4.93;;;;;;;22.60;46.16;95398.72;5136660;27;20437;-77
2021/09/25 06:02:10;;;;;;;5.27;4.77;;;;;;;22.76;46.31;95401.13;5136664;27;20921;-79
2021/09/25 06:04:37;;;;;;;7.40;5.50;;;;;;;22.87;43.53;95394.47;5136661;27;20440;-79
2021/09/25 06:07:04;;;;;;;6.00;5.50;;;;;;;23.01;43.66;95414.97;5136411;27;20436;-78
2021/09/25 06:09:33;;;;;;;5.60;5.10;;;;;;;23.14;45.51;95419.59;5136244;27;20452;-77
2021/09/25 06:12:00;;;;;;;8.60;5.93;;;;;;;23.12;47.50;95413.59;5133982;27;20437;-77
2021/09/25 06:14:27;;;;;;;9.23;5.60;;;;;;;23.13;44.72;95413.41;5136263;27;20440;-77
2021/09/25 06:16:55;;;;;;;6.20;5.60;;;;;;;23.32;50.73;95411.06;5136144;27;20445;-77
2021/09/25 06:19:28;;;;;;;7.80;5.80;;;;;;;23.61;58.97;95413.53;5136283;27;20445;-79
2021/09/25 06:21:55;;;;;;;11.07;6.40;;;;;;;23.78;45.23;95419.41;5136419;27;20487;-77
2021/09/25 06:24:22;;;;;;;9.03;5.20;;;;;;;23.85;47.95;95411.41;5136092;27;20451;-78
2021/09/25 06:26:49;;;;;;;17.13;6.03;;;;;;;24.08;49.83;95409.22;5136092;27;20455;-79
2021/09/25 06:29:16;;;;;;;12.80;6.03;;;;;;;24.36;51.77;95417.19;5136196;27;20436;-78
2021/09/25 06:31:43;;;;;;;6.60;5.20;;;;;;;24.58;46.75;95420.56;5135850;27;20562;-78
2021/09/25 06:34:11;;;;;;;10.20;5.60;;;;;;;24.77;48.13;95425.09;5135841;27;20475;-78
2021/09/25 06:36:40;;;;;;;7.03;5.43;;;;;;;24.98;42.63;95421.41;5136053;27;20440;-78
2021/09/25 06:39:07;;;;;;;6.80;5.40;;;;;;;25.16;40.31;95418.16;5136316;27;20441;-79
2021/09/25 06:41:34;;;;;;;6.57;5.13;;;;;;;25.29;44.83;95421.63;5135744;27;20451;-78
2021/09/25 06:44:01;;;;;;;8.70;6.40;;;;;;;25.46;39.22;95435.47;5136403;27;20446;-80
2021/09/25 06:46:28;;;;;;;10.60;5.93;;;;;;;24.57;38.34;95411.66;5135960;27;20441;-80
2021/09/25 06:48:55;;;;;;;8.90;6.63;;;;;;;24.45;38.20;95418.66;5135917;27;20437;-80
2021/09/25 06:51:23;;;;;;;7.03;5.83;;;;;;;24.40;39.45;95419.25;5135814;27;20951;-79
2021/09/25 06:53:50;;;;;;;8.33;6.13;;;;;;;24.43;41.30;95409.16;5135480;27;20480;-79
2021/09/25 06:56:17;;;;;;;11.30;5.87;;;;;;;24.56;40.84;95398.44;5134992;27;20444;-79
2021/09/25 06:58:44;;;;;;;13.60;7.07;;;;;;;24.72;40.99;95406.09;5135548;27;20442;-79
2021/09/25 07:01:11;;;;;;;9.37;6.10;;;;;;;24.87;41.64;95412.13;5135525;27;20481;-80
2021/09/25 07:03:38;;;;;;;10.73;6.50;;;;;;;25.09;40.88;95402.00;5135354;27;20454;-81
2021/09/25 07:06:05;;;;;;;9.20;5.30;;;;;;;25.31;40.25;95408.81;5135491;27;20445;-80
2021/09/25 07:08:33;;;;;;;13.63;6.07;;;;;;;25.45;40.59;95408.81;5099046;27;20441;-80
2021/09/25 07:11:00;;;;;;;11.50;6.50;;;;;;;25.59;40.81;95399.69;5116081;27;20444;-79
2021/09/25 07:13:27;;;;;;;9.13;6.40;;;;;;;25.73;40.25;95409.38;5135419;27;20485;-80
2021/09/25 07:15:54;;;;;;;9.13;6.50;;;;;;;25.74;40.43;95410.22;5135137;27;20449;-80
2021/09/25 07:18:21;;;;;;;11.70;6.33;;;;;;;25.80;39.46;95414.75;5132849;27;20445;-80
2021/09/25 07:20:49;;;;;;;7.53;6.37;;;;;;;25.76;37.99;95408.97;5135320;27;20478;-80
2021/09/25 07:23:16;;;;;;;7.53;6.80;;;;;;;25.73;39.16;95411.25;5134978;27;20986;-79
2021/09/25 07:25:44;;;;;;;7.20;6.50;;;;;;;25.54;40.03;95408.38;5134993;27;20459;-80
2021/09/25 07:28:12;;;;;;;9.23;8.27;;;;;;;25.27;40.41;95412.97;5098953;27;20446;-80
2021/09/25 07:30:41;;;;;;;7.60;6.70;;;;;;;25.19;40.44;95410.50;5134880;27;20449;-80
2021/09/25 07:33:08;;;;;;;9.17;7.50;;;;;;;25.22;41.85;95409.25;5134928;27;20495;-79
2021/09/25 07:35:36;;;;;;;9.73;6.03;;;;;;;25.25;42.70;95398.91;5135617;27;20441;-79
2021/09/25 07:38:04;;;;;;;13.60;7.37;;;;;;;25.07;42.07;95406.78;5135228;27;20446;-78
2021/09/25 07:40:32;;;;;;;11.10;5.90;;;;;;;25.15;43.62;95409.22;5134544;27;20537;-77
2021/09/25 07:43:01;;;;;;;7.20;6.50;;;;;;;24.90;41.21;95408.19;5134683;27;20545;-77
2021/09/25 07:45:28;;;;;;;7.03;6.37;;;;;;;24.80;41.67;95403.22;5098173;27;20923;-77
2021/09/25 07:47:56;;;;;;;9.83;7.73;;;;;;;24.84;42.81;95395.56;5134416;27;20444;-78
2021/09/25 07:50:23;;;;;;;10.83;7.40;;;;;;;24.77;42.08;95403.63;5134258;27;20799;-78
2021/09/25 07:52:55;;;;;;;12.20;7.27;;;;;;;24.79;43.21;95400.75;5134476;27;20856;-78
2021/09/25 07:55:22;;;;;;;12.33;7.93;;;;;;;24.47;43.08;95402.34;5134353;27;20501;-78
2021/09/25 07:57:53;;;;;;;9.10;6.47;;;;;;;24.51;43.02;95406.28;5134152;27;20452;-78
2021/09/25 08:00:22;;;;;;;9.97;6.60;;;;;;;24.55;43.93;95408.34;5134593;27;20448;-78
2021/09/25 08:02:49;;;;;;;7.53;6.70;;;;;;;24.36;43.52;95406.47;5134024;27;20500;-78
2021/09/25 08:05:17;;;;;;;7.87;6.70;;;;;;;24.43;44.65;95409.97;5134144;27;20445;-78
2021/09/25 08:07:44;;;;;;;7.23;5.93;;;;;;;24.40;44.82;95396.97;5133911;27;21046;-78
2021/09/25 08:10:13;;;;;;;9.83;5.87;;;;;;;24.24;45.69;95397.31;5134069;27;20450;-79
2021/09/25 08:12:40;;;;;;;11.63;6.43;;;;;;;24.15;45.44;95399.34;5133919;27;20447;-77
2021/09/25 08:15:09;;;;;;;7.30;6.60;;;;;;;24.08;46.13;95399.31;5133725;27;20446;-80
2021/09/25 08:17:38;;;;;;;8.67;6.10;;;;;;;23.99;47.05;95403.19;5133785;27;20443;-79
2021/09/25 08:20:07;;;;;;;9.60;6.10;;;;;;;24.02;50.02;95400.13;5133857;27;20452;-81
2021/09/25 08:22:35;;;;;;;12.57;6.10;;;;;;;24.08;46.89;95393.97;5133944;27;20463;-78
2021/09/25 08:25:02;;;;;;;7.83;5.53;;;;;;;23.99;46.52;95397.00;5047916;27;20433;-78
2021/09/25 08:27:29;;;;;;;8.53;5.10;;;;;;;23.77;46.22;95401.69;5134067;27;20455;-78
2021/09/25 08:29:56;;;;;;;7.27;5.40;;;;;;;23.59;47.47;95396.84;5134009;27;20441;-79
2021/09/25 08:32:23;;;;;;;5.03;4.53;;;;;;;23.60;47.33;95400.34;5134039;28;20479;-77
2021/09/25 08:34:51;;;;;;;6.80;4.87;;;;;;;23.71;48.06;95392.59;5133594;27;20480;-77
2021/09/25 08:37:18;;;;;;;5.63;4.77;;;;;;;23.85;48.13;95393.47;5133879;28;20452;-77
2021/09/25 08:39:45;;;;;;;9.00;4.83;;;;;;;24.02;48.26;95388.59;5133898;28;20444;-77
2021/09/25 08:42:13;;;;;;;8.27;5.20;;;;;;;24.09;47.79;95395.63;5133447;27;20448;-77
2021/09/25 08:44:43;;;;;;;4.37;3.97;;;;;;;23.93;47.73;95384.41;5133477;27;20445;-77
2021/09/25 08:47:10;;;;;;;4.20;3.90;;;;;;;23.97;45.92;95391.03;5133812;27;20443;-77
2021/09/25 08:49:37;;;;;;;5.60;4.43;;;;;;;23.96;45.86;95392.88;5133501;28;20440;-77
2021/09/25 08:52:06;;;;;;;5.47;4.60;;;;;;;23.79;45.85;95388.91;5133999;28;20475;-78
2021/09/25 08:54:33;;;;;;;7.23;4.80;;;;;;;23.90;47.43;95387.50;5097567;28;20490;-78
2021/09/25 08:57:03;;;;;;;5.90;5.00;;;;;;;24.15;51.35;95390.47;5134038;28;20448;-80
2021/09/25 08:59:30;;;;;;;4.50;4.00;;;;;;;24.28;45.94;95386.00;5133908;28;20445;-80
2021/09/25 09:02:09;;;;;;;7.20;5.00;;;;;;;24.31;45.06;95392.84;5134009;28;20478;-79
2021/09/25 09:04:44;;;;;;;5.70;5.17;;;;;;;24.12;44.52;95390.88;5133962;28;20530;-79
2021/09/25 09:07:18;;;;;;;5.37;4.87;;;;;;;24.04;45.56;95384.69;5133533;28;20843;-79
2021/09/25 09:09:46;;;;;;;7.47;5.80;;;;;;;24.07;45.37;95386.13;5133273;28;20444;-79
2021/09/25 09:12:13;;;;;;;19.33;9.60;;;;;;;24.17;45.71;95388.41;5133442;27;20442;-78
2021/09/25 09:14:44;;;;;;;20.73;10.50;;;;;;;24.24;45.38;95384.72;5133237;27;21044;-77
2021/09/25 09:17:15;;;;;;;9.83;8.80;;;;;;;24.19;45.06;95394.41;5133336;28;20455;-77
2021/09/25 09:19:42;;;;;;;5.07;4.50;;;;;;;24.12;45.22;95388.19;5136122;27;20443;-77
2021/09/25 09:22:10;;;;;;;6.37;4.53;;;;;;;24.17;45.52;95388.41;5137172;27;20445;-80
2021/09/25 09:24:46;;;;;;;4.63;4.23;;;;;;;24.20;44.88;95396.06;5137306;27;20447;-78
2021/09/25 09:27:17;;;;;;;4.73;4.33;;;;;;;24.11;44.82;95392.72;5137452;27;20449;-77
2021/09/25 09:29:44;;;;;;;6.90;5.00;;;;;;;24.04;44.83;95395.41;5137523;27;20448;-78
2021/09/25 09:32:13;;;;;;;7.40;5.13;;;;;;;24.17;45.47;95399.16;5100464;27;20476;-80
2021/09/25 09:34:42;;;;;;;4.17;3.77;;;;;;;24.28;44.21;95398.56;5137293;27;20495;-79
2021/09/25 09:37:18;;;;;;;9.30;5.87;;;;;;;24.32;44.28;95391.81;5136968;27;20922;-82
2021/09/25 09:39:59;;;;;;;8.40;5.93;;;;;;;24.45;45.76;95396.34;5137468;27;20527;-81
2021/09/25 09:42:32;;;;;;;6.67;5.50;;;;;;;24.52;44.15;95394.50;5100660;27;20786;-76
2021/09/25 09:45:00;;;;;;;4.70;4.30;;;;;;;24.63;44.40;95394.75;5136881;27;20444;-81
2021/09/25 09:47:27;;;;;;;4.53;4.13;;;;;;;24.67;44.38;95393.31;5100514;27;20438;-80
2021/09/25 09:49:57;;;;;;;9.53;4.50;;;;;;;24.78;43.65;95397.22;5136744;27;20452;-80
2021/09/25 09:52:24;;;;;;;4.83;4.27;;;;;;;24.93;43.92;95402.41;5136693;27;20498;-79
2021/09/25 09:54:53;;;;;;;5.67;5.10;;;;;;;25.06;43.26;95397.06;5136531;27;21026;-80
2021/09/25 09:57:21;;;;;;;4.47;4.07;;;;;;;24.99;43.17;95394.38;5136576;27;20441;-79
2021/09/25 09:59:50;;;;;;;5.23;4.33;;;;;;;25.06;42.14;95407.81;5136883;27;20498;-82
2021/09/25 10:02:18;;;;;;;6.30;4.30;;;;;;;25.11;40.85;95402.63;5136465;27;20455;-81
2021/09/25 10:04:45;;;;;;;5.10;4.17;;;;;;;25.18;41.59;95399.97;5100236;27;20884;-80
2021/09/25 10:07:12;;;;;;;6.20;4.70;;;;;;;25.19;40.09;95396.25;5136533;27;20445;-80
2021/09/25 10:09:41;;;;;;;8.90;5.67;;;;;;;25.21;40.93;95395.00;5136350;27;20446;-78
2021/09/25 10:12:12;;;;;;;4.97;4.07;;;;;;;25.22;41.22;95395.81;5136130;27;20449;-78
2021/09/25 10:14:41;;;;;;;5.27;4.77;;;;;;;25.24;41.11;95391.88;5136285;27;20983;-80
2021/09/25 10:17:10;;;;;;;6.33;5.70;;;;;;;25.25;41.02;95390.84;5135968;27;20472;-81
2021/09/25 10:19:39;;;;;;;4.63;4.23;;;;;;;25.17;42.47;95391.09;5136140;27;20536;-80
2021/09/25 10:22:10;;;;;;;4.40;4.00;;;;;;;25.12;41.90;95382.78;5136213;27;20449;-81
2021/09/25 10:24:41;;;;;;;6.43;4.80;;;;;;;25.11;43.12;95383.00;5099789;27;20524;-81
2021/09/25 10:27:10;;;;;;;8.20;4.13;;;;;;;25.12;41.13;95380.09;5135851;27;20449;-81
2021/09/25 10:29:44;;;;;;;5.27;4.60;;;;;;;25.14;42.83;95388.78;5135943;27;20459;-81
2021/09/25 10:32:20;;;;;;;9.67;5.43;;;;;;;25.14;42.60;95388.78;5135378;27;20473;-81
2021/09/25 10:35:12;;;;;;;5.87;5.27;;;;;;;25.15;43.22;95377.00;5099603;27;20473;-81
2021/09/25 10:37:41;;;;;;;7.60;6.45;;;;;;;25.13;43.17;95376.38;5051525;28;20446;-82
2021/09/25 10:40:13;;;;;;;7.20;4.87;;;;;;;25.11;42.56;95367.72;5052251;28;20650;-79
2021/09/25 10:42:45;;;;;;;5.63;5.03;;;;;;;25.16;43.57;95365.25;5052084;28;20539;-81
2021/09/25 10:45:22;;;;;;;6.30;4.47;;;;;;;25.16;43.27;95365.25;5052546;28;21000;-81
2021/09/25 10:48:06;;;;;;;7.93;4.70;;;;;;;25.06;43.52;95367.53;5052187;28;20932;-79
2021/09/25 10:50:34;;;;;;;4.97;4.10;;;;;;;25.06;41.32;95359.47;5052313;28;20447;-79
2021/09/25 10:53:10;;;;;;;7.33;4.10;;;;;;;25.06;42.28;95358.63;5051908;28;20452;-79
2021/09/25 10:55:39;;;;;;;7.47;5.20;;;;;;;24.97;42.67;95355.31;5002474;28;20483;-79
2021/09/25 10:58:19;;;;;;;5.20;4.70;;;;;;;24.96;43.65;95353.66;5052088;28;20515;-80
2021/09/25 11:01:03;;;;;;;4.83;4.30;;;;;;;24.96;42.21;95348.28;5051702;28;20952;-79
2021/09/25 11:03:52;;;;;;;8.67;5.07;;;;;;;24.91;43.03;95350.78;5051822;28;20546;-78
2021/09/25 11:06:23;;;;;;;4.50;4.07;;;;;;;24.88;43.64;95346.66;5052061;28;20537;-79
2021/09/25 11:08:51;;;;;;;7.10;4.37;;;;;;;24.78;43.39;95337.34;5051988;28;20812;-79
2021/09/25 11:11:26;;;;;;;5.20;4.50;;;;;;;24.76;43.16;95342.09;5035232;28;20452;-79
2021/09/25 11:14:24;;;;;;;9.93;5.43;;;;;;;24.77;43.22;95333.84;5081499;27;20608;-79
2021/09/25 11:17:03;;;;;;;5.27;4.77;;;;;;;24.76;43.01;95339.41;5135168;27;20443;-79
2021/09/25 11:19:42;;;;;;;5.07;4.17;;;;;;;24.78;42.67;95337.34;5135161;27;20447;-78
2021/09/25 11:22:16;;;;;;;8.67;4.40;;;;;;;24.80;43.82;95327.22;5135050;27;20961;-79
2021/09/25 11:24:45;;;;;;;4.00;3.70;;;;;;;24.84;43.08;95336.50;5117116;27;20450;-79
2021/09/25 11:27:15;;;;;;;5.83;4.30;;;;;;;24.86;42.81;95337.13;5134815;27;20975;-79
2021/09/25 11:30:02;;;;;;;5.50;4.60;;;;;;;24.90;44.51;95331.16;5134689;27;20453;-80
2021/09/25 11:32:32;;;;;;;10.27;4.50;;;;;;;24.92;43.47;95330.94;5134687;27;20482;-79
2021/09/25 11:35:01;;;;;;;4.83;4.43;;;;;;;24.93;44.25;95327.22;5134744;27;20526;-79
2021/09/25 11:37:30;;;;;;;5.67;4.50;;;;;;;24.97;43.60;95331.16;5135126;27;20520;-79
2021/09/25 11:39:58;;;;;;;4.70;4.30;;;;;;;25.02;43.31;95326.00;5134529;27;20449;-79
2021/09/25 11:42:27;;;;;;;5.20;4.70;;;;;;;25.03;43.07;95322.28;5133930;27;20438;-79
2021/09/25 11:44:57;;;;;;;5.27;3.50;;;;;;;25.03;44.00;95314.22;5134855;27;20449;-79
2021/09/25 11:47:27;;;;;;;7.50;4.87;;;;;;;25.04;43.54;95315.88;5134461;27;20799;-78
2021/09/25 11:49:55;;;;;;;7.17;4.57;;;;;;;25.07;43.98;95317.31;5134593;27;20451;-80
2021/09/25 11:52:22;;;;;;;5.10;4.70;;;;;;;25.11;43.41;95311.31;5134755;27;20447;-79
2021/09/25 11:54:50;;;;;;;10.57;4.50;;;;;;;25.06;43.11;95307.59;5134398;27;20487;-80
2021/09/25 11:57:21;;;;;;;4.30;4.00;;;;;;;25.00;43.40;95306.59;5134416;27;20455;-80
2021/09/25 11:59:48;;;;;;;4.70;4.30;;;;;;;25.06;44.25;95313.81;5134593;27;20520;-79
2021/09/25 12:02:41;;;;;;;5.00;4.50;;;;;;;25.13;43.84;95303.88;5134276;27;20456;-80
2021/09/25 12:05:10;;;;;;;4.90;4.50;;;;;;;25.16;44.07;95303.47;5134044;27;20454;-78
2021/09/25 12:07:41;;;;;;;4.93;4.23;;;;;;;25.19;44.42;95308.44;5134020;27;20443;-77
2021/09/25 12:10:15;;;;;;;4.97;4.57;;;;;;;25.24;44.32;95305.94;5133910;27;20472;-80
2021/09/25 12:12:42;;;;;;;4.73;4.23;;;;;;;25.27;44.32;95300.13;5134082;27;20931;-81
2021/09/25 12:15:10;;;;;;;4.77;4.43;;;;;;;25.33;43.07;95296.59;5114831;27;20481;-81
2021/09/25 12:17:39;;;;;;;7.80;4.97;;;;;;;25.34;43.63;95289.34;5133779;27;20566;-82
2021/09/25 12:20:17;;;;;;;7.17;4.70;;;;;;;25.33;42.67;95301.13;5133888;27;20804;-79
2021/09/25 12:22:45;;;;;;;6.87;4.30;;;;;;;25.33;43.64;95299.28;5134208;27;20534;-80
2021/09/25 12:25:13;;;;;;;4.77;3.50;;;;;;;25.37;43.32;95296.16;5133941;27;20453;-77
2021/09/25 12:27:42;;;;;;;5.70;4.30;;;;;;;25.38;43.22;95297.81;5134425;27;20485;-79
2021/09/25 12:30:12;;;;;;;6.03;3.83;;;;;;;25.27;42.87;95299.31;5133669;27;20452;-80
2021/09/25 12:32:42;;;;;;;3.80;3.50;;;;;;;25.30;42.88;95293.50;5133795;27;20481;-80
2021/09/25 12:35:20;;;;;;;4.27;3.97;;;;;;;25.34;43.97;95292.03;5133898;28;20965;-77
2021/09/25 12:37:48;;;;;;;4.10;3.70;;;;;;;25.36;42.91;95289.97;5133901;28;20445;-77
2021/09/25 12:40:16;;;;;;;4.30;3.90;;;;;;;25.35;43.12;95291.00;5133788;28;20451;-77